»·PEaware :: N232KS KPDX-KSJC

N232KS :: KPDX-KSJC

FLIGHT INFORMATION

Flight Status: Arrived
Operator: Privately registered:
United States
More flights under this callsign
Pilot: Tyler J. (19619)
Aircraft: CESSNA 550 CITATION 2/S2/BRAVO
(C550)
More flights by this aircraft type
Origin: KPDX Portland Intl
United States
Destination: KSJC Mineta San Jose Intl
United States
More flights between these airports :: More routes between these airports
Route: +MINNE5 HISKU Q5 HUPTU CHBLI BRIXX2
File this flight plan on PilotEdge
Remarks:
Altitude:
(Current/Filed)
33,000ft
Speed:
(Current/Filed)
430kts
Departed: 26-Sep-18 07:32 PM
Arrived: 26-Sep-18 09:04 PM
Distance/Time
Traveled:
495nm/1:32
Distance/Time
To Go:
Arrived

Flight Plot

Page will automatically refresh every two minutes.

Flight plan parsing failed; only flown route is shown


Map Options




Map Legend


Flown Route
Filed Route
Departure Airport
Arrival Airport
Navaid (VOR, NDB)
Fix

Horizontal Profiles

Position Reports

Time Latitude Longitude Heading Altitude Ground
Speed
26-Sep-18 19:12 45.587514 -122.584274 272 33ft 0kts
26-Sep-18 19:13 45.587514 -122.584274 272 33ft 0kts
26-Sep-18 19:14 45.587514 -122.584274 272 33ft 0kts
26-Sep-18 19:15 45.587514 -122.584274 272 33ft 0kts
26-Sep-18 19:16 45.587514 -122.584274 272 33ft 0kts
26-Sep-18 19:17 45.587514 -122.584274 272 33ft 0kts
26-Sep-18 19:18 45.587514 -122.584274 272 33ft 0kts
26-Sep-18 19:19 45.587514 -122.584274 272 33ft 0kts
26-Sep-18 19:20 45.587514 -122.584274 272 33ft 0kts
26-Sep-18 19:21 45.587514 -122.584274 272 33ft 0kts
26-Sep-18 19:22 45.587514 -122.584274 272 33ft 0kts
26-Sep-18 19:23 45.587514 -122.584274 272 33ft 0kts
26-Sep-18 19:24 45.587514 -122.584276 272 33ft 0kts
26-Sep-18 19:25 45.587518 -122.584380 272 33ft 0kts
26-Sep-18 19:26 45.587603 -122.584516 12 33ft 0kts
26-Sep-18 19:27 45.587606 -122.584516 12 33ft 0kts
26-Sep-18 19:28 45.587610 -122.584514 12 33ft 0kts
26-Sep-18 19:29 45.588718 -122.584008 29 33ft 11kts
26-Sep-18 19:30 45.586322 -122.576747 121 33ft 23kts
26-Sep-18 19:31 45.583598 -122.569857 120 33ft 14kts
26-Sep-18 19:32 45.583640 -122.569122 32 33ft 0kts
26-Sep-18 19:33 45.583643 -122.569120 32 33ft 0kts
26-Sep-18 19:34 45.585856 -122.572665 298 33ft 76kts
26-Sep-18 19:35 45.602391 -122.621905 287 2473ft 158kts
26-Sep-18 19:36 45.625471 -122.697707 301 5056ft 241kts
26-Sep-18 19:37 45.661847 -122.783339 293 7016ft 267kts
26-Sep-18 19:38 45.658642 -122.885998 243 7582ft 268kts
26-Sep-18 19:39 45.587488 -122.927913 186 10498ft 298kts
26-Sep-18 19:40 45.502851 -122.937076 185 13346ft 311kts
26-Sep-18 19:41 45.419779 -122.945950 186 14441ft 293kts
26-Sep-18 19:42 45.338277 -122.955346 186 16702ft 312kts
26-Sep-18 19:43 45.250633 -122.964961 185 19151ft 319kts
26-Sep-18 19:44 45.160412 -122.965802 182 21324ft 329kts
26-Sep-18 19:45 45.067468 -122.963321 181 23209ft 337kts
26-Sep-18 19:46 44.972822 -122.960235 181 24841ft 345kts
26-Sep-18 19:47 44.875433 -122.956936 181 26385ft 352kts
26-Sep-18 19:48 44.775841 -122.953573 180 27596ft 370kts
26-Sep-18 19:49 44.666829 -122.949957 180 27545ft 408kts
26-Sep-18 19:50 44.550317 -122.945933 180 27548ft 426kts
26-Sep-18 19:51 44.433511 -122.938833 178 28929ft 400kts
26-Sep-18 19:52 44.326453 -122.930805 178 30705ft 381kts
26-Sep-18 19:53 44.218285 -122.922991 178 31111ft 397kts
26-Sep-18 19:54 44.107539 -122.914881 178 31920ft 394kts
26-Sep-18 19:55 44.001377 -122.907082 179 32447ft 396kts
26-Sep-18 19:56 43.891765 -122.899014 179 33092ft 392kts
26-Sep-18 19:57 43.781056 -122.890943 179 33108ft 402kts
26-Sep-18 19:58 43.668670 -122.882752 179 33110ft 407kts
26-Sep-18 19:59 43.555079 -122.874465 179 33111ft 409kts
26-Sep-18 20:00 43.441082 -122.866180 179 33111ft 409kts
26-Sep-18 20:01 43.330201 -122.858166 177 33110ft 414kts
26-Sep-18 20:02 43.214471 -122.849833 177 33154ft 416kts
26-Sep-18 20:03 43.099274 -122.841563 177 33341ft 413kts
26-Sep-18 20:04 42.984117 -122.833335 177 33339ft 416kts
26-Sep-18 20:05 42.868728 -122.825120 177 33332ft 416kts
26-Sep-18 20:06 42.752819 -122.816898 177 33307ft 417kts
26-Sep-18 20:07 42.636397 -122.808665 177 33182ft 417kts
26-Sep-18 20:08 42.520515 -122.800473 177 33225ft 417kts
26-Sep-18 20:09 42.404444 -122.792287 177 33221ft 418kts
26-Sep-18 20:10 42.288352 -122.784117 177 33233ft 419kts
26-Sep-18 20:11 42.175701 -122.776193 177 33210ft 418kts
26-Sep-18 20:12 42.059264 -122.768015 178 33206ft 418kts
26-Sep-18 20:13 41.943199 -122.759870 178 33200ft 416kts
26-Sep-18 20:14 41.827824 -122.751774 178 33177ft 415kts
26-Sep-18 20:15 41.712888 -122.743699 178 33156ft 411kts
26-Sep-18 20:16 41.599010 -122.735692 178 33131ft 408kts
26-Sep-18 20:17 41.489856 -122.728016 177 33117ft 406kts
26-Sep-18 20:18 41.378235 -122.720173 177 33101ft 404kts
26-Sep-18 20:19 41.265790 -122.712282 177 33095ft 404kts
26-Sep-18 20:20 41.153847 -122.704437 177 33091ft 403kts
26-Sep-18 20:21 41.041471 -122.696576 177 33075ft 403kts
26-Sep-18 20:22 40.929665 -122.690314 180 33069ft 402kts
26-Sep-18 20:23 40.817774 -122.693315 182 33047ft 401kts
26-Sep-18 20:24 40.706424 -122.697621 182 33031ft 401kts
26-Sep-18 20:25 40.594986 -122.701982 182 33029ft 400kts
26-Sep-18 20:26 40.483514 -122.706335 181 33026ft 400kts
26-Sep-18 20:27 40.375855 -122.710525 181 33018ft 399kts
26-Sep-18 20:28 40.264960 -122.714828 181 33021ft 399kts
26-Sep-18 20:29 40.153927 -122.719124 181 33013ft 398kts
26-Sep-18 20:30 40.046092 -122.723283 181 32996ft 398kts
26-Sep-18 20:31 39.935496 -122.727535 181 32997ft 397kts
26-Sep-18 20:32 39.824726 -122.731781 181 32992ft 397kts
26-Sep-18 20:33 39.718196 -122.709549 154 32999ft 397kts
26-Sep-18 20:34 39.614735 -122.659286 173 32801ft 400kts
26-Sep-18 20:35 39.504380 -122.647742 175 32892ft 396kts
26-Sep-18 20:36 39.393422 -122.635511 175 32486ft 403kts
26-Sep-18 20:37 39.282387 -122.622763 175 31986ft 398kts
26-Sep-18 20:38 39.172515 -122.609835 175 31487ft 396kts
26-Sep-18 20:39 39.062926 -122.596961 174 30989ft 396kts
26-Sep-18 20:40 38.952703 -122.584053 174 30488ft 397kts
26-Sep-18 20:41 38.842784 -122.571214 174 29989ft 397kts
26-Sep-18 20:42 38.737351 -122.558929 174 29512ft 398kts
26-Sep-18 20:43 38.626488 -122.546037 174 29012ft 399kts
26-Sep-18 20:44 38.518953 -122.537432 177 27511ft 391kts
26-Sep-18 20:45 38.410986 -122.533433 177 25779ft 386kts
26-Sep-18 20:46 38.303524 -122.529958 177 24079ft 385kts
26-Sep-18 20:47 38.197496 -122.526459 177 22352ft 373kts
26-Sep-18 20:48 38.094782 -122.522949 176 20552ft 367kts
26-Sep-18 20:49 37.996057 -122.516968 175 18813ft 338kts
26-Sep-18 20:50 37.905716 -122.510361 175 17233ft 316kts
26-Sep-18 20:51 37.819217 -122.503892 176 15736ft 309kts
26-Sep-18 20:52 37.735650 -122.486033 155 14426ft 304kts
26-Sep-18 20:53 37.665862 -122.426077 142 13327ft 305kts
26-Sep-18 20:54 37.596122 -122.368409 154 12542ft 302kts
26-Sep-18 20:55 37.520974 -122.324326 157 12015ft 291kts
26-Sep-18 20:56 37.446011 -122.282398 157 10715ft 293kts
26-Sep-18 20:57 37.372731 -122.241055 157 9018ft 286kts
26-Sep-18 20:58 37.301236 -122.200079 157 7373ft 279kts
26-Sep-18 20:59 37.243294 -122.139262 127 4939ft 262kts
26-Sep-18 21:00 37.215787 -122.070026 82 5075ft 241kts
26-Sep-18 21:01 37.221711 -121.988465 85 4343ft 206kts
26-Sep-18 21:02 37.234437 -121.924882 52 4160ft 218kts
26-Sep-18 21:03 37.278439 -121.874015 6 2917ft 179kts
26-Sep-18 21:04 37.321314 -121.886876 336 1359ft 160kts
26-Sep-18 21:05 37.349528 -121.915391 318 302ft 128kts
26-Sep-18 21:06 37.366681 -121.934338 307 65ft 17kts
26-Sep-18 21:07 37.365173 -121.937160 170 65ft 14kts
26-Sep-18 21:08 37.360601 -121.932292 138 65ft 22kts
26-Sep-18 21:09 37.358233 -121.931222 305 65ft 5kts
26-Sep-18 21:10 37.358289 -121.931318 305 65ft 0kts

Navigation Log

Ident Type
Flight plan parsing failed, navigation log unavailable